Port Alsworth, AK (99653)

3:47 AM AKDT on October 23, 2014 (GMT -0800)
RAWS SNIPE LAKE AK US | Change Station
CLOSE
Current Station
Personal Weather Station
Location: Port Alsworth, AK
Elevation: 2314 ft
Nearby Weather Stations

Elev 2314 ft 60.61 °N, 154.32 °W | Updated 43 minutes ago

Mostly Cloudy
Mostly Cloudy
20 °F
Feels Like 13 °F
N
5
Wind Variable Wind from NNW
Gusts 9.0 mph

Today
High -- | Low -- °F
--% Chance of Precip.
Yesterday
High -- | Low -- °F
Precip. -- in
9:19 AM 6:44 PM
Waning Crescent, 0% visible
Pressure 29.80 in
Visibility 10.0 miles
Clouds Few 700 ft
Mostly Cloudy 1900 ft
Windchill 13 °F
Dew Point 18 °F
Humidity 89%
Rainfall 0.00 in
Snow Depth Not available.
UV 0 out of 12
Pollen Not available.
Air Quality Not available.
Flu Activity Sporadic
METAR PASV 231055Z AUTO VRB04KT 10SM FEW007 BKN019 M05/M06 A2971 RMK AO2 SLP090 T10471061

More Conditions Fewer Conditions

Pressure 29.80 in
Visibility 10.0 miles
Clouds Few 700 ft
Mostly Cloudy 1900 ft
Windchill 13 °F
Dew Point 18 °F
Humidity 89%
Rainfall 0.00 in
Snow Depth Not available.
UV 0 out of 12
Pollen Not available.
Air Quality Not available.
Flu Activity Sporadic
METAR PASV 231055Z AUTO VRB04KT 10SM FEW007 BKN019 M05/M06 A2971 RMK AO2 SLP090 T10471061

More Conditions Fewer Conditions

10-Day Weather Forecast

Almanac

Astronomy

Oct. 23, 2014 Rise Set
Actual Time 9:19 AM AKDT 6:44 PM AKDT
Civil Twilight 8:35 AM AKDT 7:28 PM AKDT
Nautical Twilight 7:46 AM AKDT 8:17 PM AKDT
Astronomical Twilight 6:57 AM AKDT 9:05 PM AKDT
Moon 9:07 AM AKDT 6:49 PM AKDT
Length of Visible Light 10h 53m
Length of Day
9h 25m
Tomorrow will be 5m 23s shorter.
Waning Crescent, 0% of the Moon is Illuminated
Today
Waning Crescent
Oct 23
New
Oct 30
First Quarter
Nov 6
Full
Nov 14
Last Quarter

Today's Extremes

State Highs State Lows

Community

WunderPhotos

Upload Photos

1,764,209 photos uploaded!

Nearby

Snow Depth

Station Depth Elevation
Mcneil Canyon 1 in 1320 ft
Port Graham 0 in 300 ft
MF Bradley River 0 in 2300 ft
Cooper Lake 1 in 1200 ft
Point Mackenzie 1 in 200 ft

Earthquake Activity

City Distance Mag. Time & Date
No recent earthquake activity has been reported nearby.
Minimum magnitude displayed is 2.5.

Coastal Water Temperatures

Place Temperature
No Stations Reporting

Nearby Weather Stations